sensor_id;sensor_type;location;lat;lon;timestamp;pressure;altitude;pressure_sealevel;temperature;humidity
77366;BME280;66430;50.182;11.704;2023-09-19T00:02:23;94200.64;;;19.75;42.60
77366;BME280;66430;50.182;11.704;2023-09-19T00:04:49;94205.60;;;19.45;42.51
77366;BME280;66430;50.182;11.704;2023-09-19T00:07:14;94211.41;;;19.44;42.47
77366;BME280;66430;50.182;11.704;2023-09-19T00:09:40;94210.22;;;19.48;42.57
77366;BME280;66430;50.182;11.704;2023-09-19T00:12:07;94210.26;;;19.59;42.91
77366;BME280;66430;50.182;11.704;2023-09-19T00:14:30;94209.20;;;19.37;42.93
77366;BME280;66430;50.182;11.704;2023-09-19T00:16:56;94207.09;;;19.68;43.04
77366;BME280;66430;50.182;11.704;2023-09-19T00:19:21;94203.32;;;19.63;43.12
77366;BME280;66430;50.182;11.704;2023-09-19T00:21:47;94200.73;;;19.46;43.43
77366;BME280;66430;50.182;11.704;2023-09-19T00:24:12;94203.77;;;19.73;42.85
77366;BME280;66430;50.182;11.704;2023-09-19T00:26:37;94201.41;;;19.65;43.18
77366;BME280;66430;50.182;11.704;2023-09-19T00:29:02;94204.37;;;19.45;43.16
77366;BME280;66430;50.182;11.704;2023-09-19T00:31:28;94200.16;;;19.59;43.30
77366;BME280;66430;50.182;11.704;2023-09-19T00:33:53;94194.03;;;19.18;43.35
77366;BME280;66430;50.182;11.704;2023-09-19T00:36:19;94193.79;;;19.57;43.20
77366;BME280;66430;50.182;11.704;2023-09-19T00:38:44;94197.23;;;19.29;43.28
77366;BME280;66430;50.182;11.704;2023-09-19T00:41:09;94198.30;;;19.54;43.19
77366;BME280;66430;50.182;11.704;2023-09-19T00:43:35;94196.30;;;19.83;43.21
77366;BME280;66430;50.182;11.704;2023-09-19T00:46:00;94199.21;;;19.47;42.71
77366;BME280;66430;50.182;11.704;2023-09-19T00:48:26;94196.81;;;19.50;42.93
77366;BME280;66430;50.182;11.704;2023-09-19T00:50:51;94202.74;;;19.53;43.50
77366;BME280;66430;50.182;11.704;2023-09-19T00:53:19;94196.27;;;19.41;43.17
77366;BME280;66430;50.182;11.704;2023-09-19T00:55:42;94194.55;;;19.81;42.98
77366;BME280;66430;50.182;11.704;2023-09-19T00:58:07;94204.73;;;19.84;42.85
77366;BME280;66430;50.182;11.704;2023-09-19T01:00:33;94209.35;;;19.47;43.26
77366;BME280;66430;50.182;11.704;2023-09-19T01:02:58;94209.02;;;19.55;43.41
77366;BME280;66430;50.182;11.704;2023-09-19T01:05:23;94214.06;;;19.08;44.27
77366;BME280;66430;50.182;11.704;2023-09-19T01:07:48;94214.93;;;19.38;43.70
77366;BME280;66430;50.182;11.704;2023-09-19T01:10:16;94213.21;;;19.44;43.52
77366;BME280;66430;50.182;11.704;2023-09-19T01:12:47;94211.26;;;19.52;42.82
77366;BME280;66430;50.182;11.704;2023-09-19T01:15:11;94212.03;;;19.50;43.47
77366;BME280;66430;50.182;11.704;2023-09-19T01:17:34;94212.37;;;19.61;43.25
77366;BME280;66430;50.182;11.704;2023-09-19T01:20:10;94211.37;;;19.63;43.06
77366;BME280;66430;50.182;11.704;2023-09-19T01:22:24;94217.31;;;19.30;43.85
77366;BME280;66430;50.182;11.704;2023-09-19T01:24:59;94214.14;;;19.66;43.13
77366;BME280;66430;50.182;11.704;2023-09-19T01:27:31;94213.24;;;19.66;43.18
77366;BME280;66430;50.182;11.704;2023-09-19T01:29:39;94217.34;;;19.22;44.23
77366;BME280;66430;50.182;11.704;2023-09-19T01:32:05;94219.08;;;19.70;43.15
77366;BME280;66430;50.182;11.704;2023-09-19T01:34:27;94217.35;;;19.42;43.69
77366;BME280;66430;50.182;11.704;2023-09-19T01:36:53;94219.80;;;19.25;43.65
77366;BME280;66430;50.182;11.704;2023-09-19T01:39:18;94215.67;;;19.47;43.17
77366;BME280;66430;50.182;11.704;2023-09-19T01:41:54;94213.19;;;19.58;43.50
77366;BME280;66430;50.182;11.704;2023-09-19T01:44:13;94219.42;;;19.28;43.81
77366;BME280;66430;50.182;11.704;2023-09-19T01:46:37;94218.42;;;19.47;43.72
77366;BME280;66430;50.182;11.704;2023-09-19T01:49:07;94217.09;;;19.01;43.84
77366;BME280;66430;50.182;11.704;2023-09-19T01:51:32;94216.64;;;19.59;43.46
77366;BME280;66430;50.182;11.704;2023-09-19T01:54:00;94224.01;;;18.99;43.97
77366;BME280;66430;50.182;11.704;2023-09-19T01:56:22;94219.93;;;19.45;43.56
77366;BME280;66430;50.182;11.704;2023-09-19T01:58:46;94220.10;;;19.72;43.16
77366;BME280;66430;50.182;11.704;2023-09-19T02:01:08;94226.04;;;19.13;43.89
77366;BME280;66430;50.182;11.704;2023-09-19T02:03:33;94217.26;;;19.30;44.09
77366;BME280;66430;50.182;11.704;2023-09-19T02:05:57;94226.38;;;19.30;43.68
77366;BME280;66430;50.182;11.704;2023-09-19T02:08:23;94227.98;;;19.55;43.67
77366;BME280;66430;50.182;11.704;2023-09-19T02:10:49;94222.69;;;19.01;44.15
77366;BME280;66430;50.182;11.704;2023-09-19T02:13:14;94226.44;;;19.11;43.82
77366;BME280;66430;50.182;11.704;2023-09-19T02:15:39;94222.99;;;19.06;43.92
77366;BME280;66430;50.182;11.704;2023-09-19T02:18:04;94218.94;;;19.21;43.67
77366;BME280;66430;50.182;11.704;2023-09-19T02:20:30;94219.41;;;19.05;43.39
77366;BME280;66430;50.182;11.704;2023-09-19T02:22:56;94222.20;;;18.97;43.74
77366;BME280;66430;50.182;11.704;2023-09-19T02:25:20;94213.42;;;19.08;43.04
77366;BME280;66430;50.182;11.704;2023-09-19T02:27:46;94221.94;;;18.60;44.36
77366;BME280;66430;50.182;11.704;2023-09-19T02:30:12;94221.14;;;19.04;43.46
77366;BME280;66430;50.182;11.704;2023-09-19T02:32:37;94220.53;;;18.74;43.69
77366;BME280;66430;50.182;11.704;2023-09-19T02:35:06;94219.02;;;18.72;44.22
77366;BME280;66430;50.182;11.704;2023-09-19T02:37:27;94223.64;;;18.53;43.71
77366;BME280;66430;50.182;11.704;2023-09-19T02:39:53;94223.11;;;18.88;43.64
77366;BME280;66430;50.182;11.704;2023-09-19T02:42:18;94220.42;;;18.89;43.51
77366;BME280;66430;50.182;11.704;2023-09-19T02:44:44;94221.06;;;18.72;43.74
77366;BME280;66430;50.182;11.704;2023-09-19T02:47:09;94221.50;;;18.97;43.52
77366;BME280;66430;50.182;11.704;2023-09-19T02:49:34;94216.52;;;18.87;43.03
77366;BME280;66430;50.182;11.704;2023-09-19T02:52:00;94221.48;;;18.47;43.81
77366;BME280;66430;50.182;11.704;2023-09-19T02:54:25;94222.74;;;18.65;44.07
77366;BME280;66430;50.182;11.704;2023-09-19T02:56:51;94226.10;;;18.43;43.86
77366;BME280;66430;50.182;11.704;2023-09-19T02:59:16;94228.74;;;18.71;43.44
77366;BME280;66430;50.182;11.704;2023-09-19T03:01:43;94226.77;;;18.30;44.17
77366;BME280;66430;50.182;11.704;2023-09-19T03:04:07;94220.98;;;18.61;44.00
77366;BME280;66430;50.182;11.704;2023-09-19T03:06:32;94222.73;;;18.39;43.95
77366;BME280;66430;50.182;11.704;2023-09-19T03:08:58;94218.29;;;18.42;44.22
77366;BME280;66430;50.182;11.704;2023-09-19T03:11:23;94216.21;;;18.54;44.06
77366;BME280;66430;50.182;11.704;2023-09-19T03:13:51;94219.90;;;18.90;43.98
77366;BME280;66430;50.182;11.704;2023-09-19T03:16:14;94219.90;;;18.57;44.46
77366;BME280;66430;50.182;11.704;2023-09-19T03:18:39;94219.94;;;18.65;44.27
77366;BME280;66430;50.182;11.704;2023-09-19T03:21:04;94218.96;;;18.69;43.83
77366;BME280;66430;50.182;11.704;2023-09-19T03:23:30;94213.77;;;18.38;44.40
77366;BME280;66430;50.182;11.704;2023-09-19T03:25:55;94210.07;;;18.71;43.84
77366;BME280;66430;50.182;11.704;2023-09-19T03:28:21;94207.68;;;18.71;44.11
77366;BME280;66430;50.182;11.704;2023-09-19T03:30:46;94218.30;;;19.06;43.56
77366;BME280;66430;50.182;11.704;2023-09-19T03:33:12;94220.79;;;19.04;43.59
77366;BME280;66430;50.182;11.704;2023-09-19T03:35:37;94216.97;;;18.90;43.77
77366;BME280;66430;50.182;11.704;2023-09-19T03:38:03;94221.07;;;18.74;43.82
77366;BME280;66430;50.182;11.704;2023-09-19T03:40:28;94221.92;;;18.52;44.00
77366;BME280;66430;50.182;11.704;2023-09-19T03:42:53;94223.58;;;18.57;44.04
77366;BME280;66430;50.182;11.704;2023-09-19T03:45:18;94230.33;;;18.90;43.83
77366;BME280;66430;50.182;11.704;2023-09-19T03:47:43;94226.92;;;19.16;43.27
77366;BME280;66430;50.182;11.704;2023-09-19T03:50:09;94232.30;;;18.37;44.18
77366;BME280;66430;50.182;11.704;2023-09-19T03:52:34;94235.82;;;18.51;44.04
77366;BME280;66430;50.182;11.704;2023-09-19T03:55:00;94236.63;;;18.46;44.07
77366;BME280;66430;50.182;11.704;2023-09-19T03:57:25;94236.22;;;18.90;43.85
77366;BME280;66430;50.182;11.704;2023-09-19T03:59:51;94239.27;;;18.45;44.18
77366;BME280;66430;50.182;11.704;2023-09-19T04:02:16;94245.42;;;18.82;43.65
77366;BME280;66430;50.182;11.704;2023-09-19T04:04:41;94247.23;;;18.82;43.40
77366;BME280;66430;50.182;11.704;2023-09-19T04:07:07;94246.91;;;18.43;43.83
77366;BME280;66430;50.182;11.704;2023-09-19T04:09:32;94251.18;;;18.65;43.99
77366;BME280;66430;50.182;11.704;2023-09-19T04:11:57;94252.20;;;18.61;43.64
77366;BME280;66430;50.182;11.704;2023-09-19T04:14:23;94256.95;;;18.89;43.81
77366;BME280;66430;50.182;11.704;2023-09-19T04:16:48;94255.66;;;18.63;43.95
77366;BME280;66430;50.182;11.704;2023-09-19T04:19:14;94251.83;;;18.47;44.03
77366;BME280;66430;50.182;11.704;2023-09-19T04:21:39;94260.59;;;18.89;43.30
77366;BME280;66430;50.182;11.704;2023-09-19T04:24:05;94260.06;;;18.69;43.51
77366;BME280;66430;50.182;11.704;2023-09-19T04:26:30;94266.26;;;18.68;43.60
77366;BME280;66430;50.182;11.704;2023-09-19T04:29:00;94264.83;;;18.81;43.41
77366;BME280;66430;50.182;11.704;2023-09-19T04:31:21;94266.01;;;18.75;43.71
77366;BME280;66430;50.182;11.704;2023-09-19T04:33:47;94272.02;;;18.89;43.76
77366;BME280;66430;50.182;11.704;2023-09-19T04:36:11;94269.60;;;18.92;43.60
77366;BME280;66430;50.182;11.704;2023-09-19T04:38:37;94269.92;;;18.73;43.44
77366;BME280;66430;50.182;11.704;2023-09-19T04:41:04;94266.59;;;18.67;44.18
77366;BME280;66430;50.182;11.704;2023-09-19T04:43:27;94270.69;;;18.59;43.61
77366;BME280;66430;50.182;11.704;2023-09-19T04:45:53;94274.71;;;19.03;43.49
77366;BME280;66430;50.182;11.704;2023-09-19T04:48:18;94275.56;;;19.18;43.14
77366;BME280;66430;50.182;11.704;2023-09-19T04:50:44;94275.98;;;18.45;43.95
77366;BME280;66430;50.182;11.704;2023-09-19T04:53:09;94278.34;;;18.45;43.85
77366;BME280;66430;50.182;11.704;2023-09-19T04:55:34;94281.70;;;18.77;43.49
77366;BME280;66430;50.182;11.704;2023-09-19T04:58:02;94283.76;;;19.06;43.32
77366;BME280;66430;50.182;11.704;2023-09-19T05:00:25;94284.89;;;18.82;43.63
77366;BME280;66430;50.182;11.704;2023-09-19T05:02:51;94284.23;;;18.59;43.98
77366;BME280;66430;50.182;11.704;2023-09-19T05:05:16;94288.25;;;18.72;43.73
77366;BME280;66430;50.182;11.704;2023-09-19T05:07:42;94291.53;;;18.91;43.25
77366;BME280;66430;50.182;11.704;2023-09-19T05:10:08;94287.35;;;19.06;43.73
77366;BME280;66430;50.182;11.704;2023-09-19T05:12:33;94288.94;;;18.75;43.56
77366;BME280;66430;50.182;11.704;2023-09-19T05:14:58;94286.66;;;18.29;44.12
77366;BME280;66430;50.182;11.704;2023-09-19T05:17:23;94293.00;;;18.77;43.46
77366;BME280;66430;50.182;11.704;2023-09-19T05:19:48;94295.57;;;18.89;43.15
77366;BME280;66430;50.182;11.704;2023-09-19T05:22:13;94300.72;;;18.45;44.05
77366;BME280;66430;50.182;11.704;2023-09-19T05:24:39;94300.52;;;18.93;43.78
77366;BME280;66430;50.182;11.704;2023-09-19T05:27:04;94303.15;;;19.03;43.43
77366;BME280;66430;50.182;11.704;2023-09-19T05:29:30;94303.83;;;18.32;44.33
77366;BME280;66430;50.182;11.704;2023-09-19T05:31:55;94305.59;;;18.64;43.70
77366;BME280;66430;50.182;11.704;2023-09-19T05:34:20;94308.09;;;19.19;43.23
77366;BME280;66430;50.182;11.704;2023-09-19T05:36:46;94307.97;;;18.91;43.53
77366;BME280;66430;50.182;11.704;2023-09-19T05:39:11;94312.82;;;18.88;43.70
77366;BME280;66430;50.182;11.704;2023-09-19T05:41:37;94310.91;;;18.97;43.62
77366;BME280;66430;50.182;11.704;2023-09-19T05:44:02;94316.41;;;18.78;43.51
77366;BME280;66430;50.182;11.704;2023-09-19T05:46:28;94319.77;;;18.99;43.25
77366;BME280;66430;50.182;11.704;2023-09-19T05:48:53;94323.30;;;18.88;43.58
77366;BME280;66430;50.182;11.704;2023-09-19T05:51:18;94327.70;;;18.85;43.68
77366;BME280;66430;50.182;11.704;2023-09-19T05:53:43;94331.31;;;19.07;43.28
77366;BME280;66430;50.182;11.704;2023-09-19T05:56:09;94330.25;;;18.85;43.61
77366;BME280;66430;50.182;11.704;2023-09-19T05:58:34;94329.89;;;18.43;44.27
77366;BME280;66430;50.182;11.704;2023-09-19T06:00:59;94333.82;;;18.47;43.96
77366;BME280;66430;50.182;11.704;2023-09-19T06:03:24;94342.59;;;19.32;43.74
77366;BME280;66430;50.182;11.704;2023-09-19T06:05:50;94338.24;;;18.69;44.21
77366;BME280;66430;50.182;11.704;2023-09-19T06:08:15;94340.89;;;18.51;44.16
77366;BME280;66430;50.182;11.704;2023-09-19T06:10:41;94343.79;;;19.06;43.68
77366;BME280;66430;50.182;11.704;2023-09-19T06:13:06;94347.52;;;19.24;43.83
77366;BME280;66430;50.182;11.704;2023-09-19T06:15:32;94351.77;;;18.97;43.84
77366;BME280;66430;50.182;11.704;2023-09-19T06:17:57;94350.30;;;18.71;43.88
77366;BME280;66430;50.182;11.704;2023-09-19T06:20:23;94353.86;;;18.74;43.45
77366;BME280;66430;50.182;11.704;2023-09-19T06:22:48;94354.64;;;18.84;43.34
77366;BME280;66430;50.182;11.704;2023-09-19T06:25:14;94368.57;;;18.73;42.91
77366;BME280;66430;50.182;11.704;2023-09-19T06:27:39;94363.35;;;18.28;43.88
77366;BME280;66430;50.182;11.704;2023-09-19T06:30:05;94366.40;;;18.92;43.30
77366;BME280;66430;50.182;11.704;2023-09-19T06:32:29;94370.47;;;18.83;42.99
77366;BME280;66430;50.182;11.704;2023-09-19T06:34:54;94366.03;;;18.83;43.16
77366;BME280;66430;50.182;11.704;2023-09-19T06:37:20;94374.58;;;18.72;42.97
77366;BME280;66430;50.182;11.704;2023-09-19T06:39:48;94375.35;;;18.96;42.64
77366;BME280;66430;50.182;11.704;2023-09-19T06:42:11;94373.21;;;18.54;42.81
77366;BME280;66430;50.182;11.704;2023-09-19T06:44:36;94382.61;;;18.58;43.00
77366;BME280;66430;50.182;11.704;2023-09-19T06:47:02;94379.68;;;18.68;43.54
77366;BME280;66430;50.182;11.704;2023-09-19T06:49:27;94381.58;;;18.57;43.47
77366;BME280;66430;50.182;11.704;2023-09-19T06:51:54;94390.05;;;18.43;43.13
77366;BME280;66430;50.182;11.704;2023-09-19T06:54:18;94393.80;;;18.63;43.05
77366;BME280;66430;50.182;11.704;2023-09-19T06:56:43;94397.37;;;18.38;43.19
77366;BME280;66430;50.182;11.704;2023-09-19T06:59:08;94411.46;;;18.62;42.68
77366;BME280;66430;50.182;11.704;2023-09-19T07:01:33;94420.72;;;18.81;42.95
77366;BME280;66430;50.182;11.704;2023-09-19T07:03:58;94413.39;;;19.20;42.30
77366;BME280;66430;50.182;11.704;2023-09-19T07:06:23;94421.16;;;19.16;41.92
77366;BME280;66430;50.182;11.704;2023-09-19T07:08:52;94424.56;;;18.99;42.63
77366;BME280;66430;50.182;11.704;2023-09-19T07:11:14;94425.43;;;19.36;42.34
77366;BME280;66430;50.182;11.704;2023-09-19T07:13:40;94422.05;;;19.41;42.41
77366;BME280;66430;50.182;11.704;2023-09-19T07:16:05;94423.36;;;19.59;41.57
77366;BME280;66430;50.182;11.704;2023-09-19T07:18:30;94417.54;;;19.63;42.18
77366;BME280;66430;50.182;11.704;2023-09-19T07:20:57;94417.65;;;19.72;41.41
77366;BME280;66430;50.182;11.704;2023-09-19T07:23:22;94414.86;;;19.82;40.61
77366;BME280;66430;50.182;11.704;2023-09-19T07:25:47;94415.20;;;19.30;41.00
77366;BME280;66430;50.182;11.704;2023-09-19T07:28:12;94417.10;;;19.72;40.70
77366;BME280;66430;50.182;11.704;2023-09-19T07:30:38;94415.52;;;19.58;40.81
77366;BME280;66430;50.182;11.704;2023-09-19T07:33:03;94420.95;;;19.64;39.79
77366;BME280;66430;50.182;11.704;2023-09-19T07:35:28;94419.87;;;19.42;39.73
77366;BME280;66430;50.182;11.704;2023-09-19T07:37:53;94423.56;;;19.28;39.61
77366;BME280;66430;50.182;11.704;2023-09-19T07:40:19;94424.96;;;19.12;39.47
77366;BME280;66430;50.182;11.704;2023-09-19T07:42:44;94425.02;;;19.49;39.22
77366;BME280;66430;50.182;11.704;2023-09-19T07:45:10;94430.75;;;19.24;39.02
77366;BME280;66430;50.182;11.704;2023-09-19T07:47:35;94434.30;;;19.37;39.03
77366;BME280;66430;50.182;11.704;2023-09-19T07:50:00;94433.84;;;19.59;39.22
77366;BME280;66430;50.182;11.704;2023-09-19T07:52:26;94431.92;;;19.97;39.45
77366;BME280;66430;50.182;11.704;2023-09-19T07:54:51;94442.60;;;20.21;39.68
77366;BME280;66430;50.182;11.704;2023-09-19T07:57:16;94432.78;;;20.12;38.58
77366;BME280;66430;50.182;11.704;2023-09-19T07:59:42;94436.15;;;19.77;38.23
77366;BME280;66430;50.182;11.704;2023-09-19T08:02:07;94444.07;;;20.29;37.58
77366;BME280;66430;50.182;11.704;2023-09-19T08:04:32;94447.30;;;20.08;37.75
77366;BME280;66430;50.182;11.704;2023-09-19T08:06:58;94456.65;;;19.69;37.43
77366;BME280;66430;50.182;11.704;2023-09-19T08:09:23;94460.62;;;19.53;37.97
77366;BME280;66430;50.182;11.704;2023-09-19T08:11:48;94457.83;;;19.43;38.42
77366;BME280;66430;50.182;11.704;2023-09-19T08:14:14;94463.86;;;19.78;39.01
77366;BME280;66430;50.182;11.704;2023-09-19T08:16:39;94460.88;;;20.06;38.68
77366;BME280;66430;50.182;11.704;2023-09-19T08:19:04;94467.71;;;19.42;38.41
77366;BME280;66430;50.182;11.704;2023-09-19T08:21:30;94469.26;;;19.85;38.03
77366;BME280;66430;50.182;11.704;2023-09-19T08:23:55;94469.29;;;19.66;38.60
77366;BME280;66430;50.182;11.704;2023-09-19T08:26:20;94471.03;;;19.82;38.41
77366;BME280;66430;50.182;11.704;2023-09-19T08:28:46;94476.10;;;19.47;39.14
77366;BME280;66430;50.182;11.704;2023-09-19T08:31:11;94482.08;;;20.01;38.24
77366;BME280;66430;50.182;11.704;2023-09-19T08:33:37;94482.86;;;19.87;37.88
77366;BME280;66430;50.182;11.704;2023-09-19T08:36:02;94485.07;;;19.94;37.11
77366;BME280;66430;50.182;11.704;2023-09-19T08:38:28;94491.08;;;19.72;37.97
77366;BME280;66430;50.182;11.704;2023-09-19T08:40:53;94497.33;;;19.92;38.57
77366;BME280;66430;50.182;11.704;2023-09-19T08:43:21;94491.99;;;19.90;38.07
77366;BME280;66430;50.182;11.704;2023-09-19T08:45:44;94492.65;;;19.90;37.67
77366;BME280;66430;50.182;11.704;2023-09-19T08:48:19;94492.29;;;19.73;38.18
77366;BME280;66430;50.182;11.704;2023-09-19T08:50:38;94498.26;;;19.43;37.31
77366;BME280;66430;50.182;11.704;2023-09-19T08:53:01;94501.02;;;19.70;37.41
77366;BME280;66430;50.182;11.704;2023-09-19T08:55:28;94506.14;;;19.79;37.66
77366;BME280;66430;50.182;11.704;2023-09-19T08:57:50;94505.19;;;19.60;37.16
77366;BME280;66430;50.182;11.704;2023-09-19T09:00:16;94507.60;;;19.52;37.62
77366;BME280;66430;50.182;11.704;2023-09-19T09:02:43;94510.75;;;19.22;37.62
77366;BME280;66430;50.182;11.704;2023-09-19T09:05:07;94509.64;;;19.75;37.96
77366;BME280;66430;50.182;11.704;2023-09-19T09:07:32;94511.00;;;19.96;38.16
77366;BME280;66430;50.182;11.704;2023-09-19T09:09:56;94509.24;;;20.45;37.82
77366;BME280;66430;50.182;11.704;2023-09-19T09:12:22;94506.65;;;19.76;37.89
77366;BME280;66430;50.182;11.704;2023-09-19T09:14:48;94505.29;;;20.28;37.01
77366;BME280;66430;50.182;11.704;2023-09-19T09:17:12;94514.71;;;20.05;36.77
77366;BME280;66430;50.182;11.704;2023-09-19T09:19:38;94507.46;;;20.18;36.61
77366;BME280;66430;50.182;11.704;2023-09-19T09:22:08;94507.30;;;19.99;36.88
77366;BME280;66430;50.182;11.704;2023-09-19T09:24:29;94505.87;;;19.45;36.71
77366;BME280;66430;50.182;11.704;2023-09-19T09:26:54;94501.81;;;20.04;36.79
77366;BME280;66430;50.182;11.704;2023-09-19T09:31:45;94502.04;;;20.69;36.44
77366;BME280;66430;50.182;11.704;2023-09-19T09:34:11;94508.45;;;20.73;36.39
77366;BME280;66430;50.182;11.704;2023-09-19T09:36:36;94501.66;;;20.59;34.77
77366;BME280;66430;50.182;11.704;2023-09-19T09:39:01;94500.68;;;20.55;35.15
77366;BME280;66430;50.182;11.704;2023-09-19T09:41:36;94502.07;;;20.58;34.63
77366;BME280;66430;50.182;11.704;2023-09-19T09:43:51;94503.39;;;20.69;34.89
77366;BME280;66430;50.182;11.704;2023-09-19T09:46:18;94500.45;;;20.46;35.79
77366;BME280;66430;50.182;11.704;2023-09-19T09:48:42;94503.02;;;21.21;35.29
77366;BME280;66430;50.182;11.704;2023-09-19T09:51:07;94504.02;;;20.88;35.34
77366;BME280;66430;50.182;11.704;2023-09-19T09:53:33;94509.14;;;21.20;34.54
77366;BME280;66430;50.182;11.704;2023-09-19T09:56:00;94502.46;;;21.05;35.10
77366;BME280;66430;50.182;11.704;2023-09-19T09:58:23;94509.58;;;21.55;34.11
77366;BME280;66430;50.182;11.704;2023-09-19T10:00:54;94505.14;;;21.27;33.44
77366;BME280;66430;50.182;11.704;2023-09-19T10:03:19;94512.90;;;21.40;33.94
77366;BME280;66430;50.182;11.704;2023-09-19T10:05:44;94511.14;;;21.09;33.51
77366;BME280;66430;50.182;11.704;2023-09-19T10:08:10;94511.06;;;21.20;34.04
77366;BME280;66430;50.182;11.704;2023-09-19T10:10:32;94516.27;;;21.28;34.23
77366;BME280;66430;50.182;11.704;2023-09-19T10:12:59;94523.23;;;21.15;34.07
77366;BME280;66430;50.182;11.704;2023-09-19T10:15:21;94520.23;;;21.20;33.35
77366;BME280;66430;50.182;11.704;2023-09-19T10:17:47;94516.04;;;21.01;34.09
77366;BME280;66430;50.182;11.704;2023-09-19T10:20:13;94512.51;;;21.46;34.27
77366;BME280;66430;50.182;11.704;2023-09-19T10:22:37;94508.38;;;21.41;33.92
77366;BME280;66430;50.182;11.704;2023-09-19T10:25:06;94513.57;;;21.10;34.66
77366;BME280;66430;50.182;11.704;2023-09-19T10:27:27;94506.79;;;20.92;34.16
77366;BME280;66430;50.182;11.704;2023-09-19T10:29:53;94505.73;;;21.16;34.25
77366;BME280;66430;50.182;11.704;2023-09-19T10:32:18;94505.31;;;21.62;33.17
77366;BME280;66430;50.182;11.704;2023-09-19T10:34:44;94508.64;;;21.43;32.59
77366;BME280;66430;50.182;11.704;2023-09-19T10:37:13;94505.31;;;22.08;32.35
77366;BME280;66430;50.182;11.704;2023-09-19T10:39:39;94510.68;;;21.98;31.79
77366;BME280;66430;50.182;11.704;2023-09-19T10:42:02;94512.37;;;22.31;31.69
77366;BME280;66430;50.182;11.704;2023-09-19T10:44:25;94518.66;;;21.80;32.43
77366;BME280;66430;50.182;11.704;2023-09-19T10:46:50;94514.28;;;22.08;32.31
77366;BME280;66430;50.182;11.704;2023-09-19T10:49:15;94515.97;;;20.55;31.94
77366;BME280;66430;50.182;11.704;2023-09-19T10:51:43;94518.23;;;21.77;29.80
77366;BME280;66430;50.182;11.704;2023-09-19T10:54:10;94522.04;;;21.98;30.80
77366;BME280;66430;50.182;11.704;2023-09-19T10:56:33;94515.85;;;21.67;30.38
77366;BME280;66430;50.182;11.704;2023-09-19T10:59:05;94514.85;;;21.81;31.17
77366;BME280;66430;50.182;11.704;2023-09-19T11:01:22;94517.72;;;21.78;32.47
77366;BME280;66430;50.182;11.704;2023-09-19T11:03:47;94513.55;;;22.15;32.27
77366;BME280;66430;50.182;11.704;2023-09-19T11:06:14;94519.17;;;21.95;32.16
77366;BME280;66430;50.182;11.704;2023-09-19T11:08:51;94511.21;;;22.27;31.60
77366;BME280;66430;50.182;11.704;2023-09-19T11:11:03;94520.91;;;22.55;32.08
77366;BME280;66430;50.182;11.704;2023-09-19T11:13:29;94514.98;;;22.85;31.65
77366;BME280;66430;50.182;11.704;2023-09-19T11:16:04;94513.59;;;21.95;32.03
77366;BME280;66430;50.182;11.704;2023-09-19T11:20:45;94503.23;;;22.71;30.61
77366;BME280;66430;50.182;11.704;2023-09-19T11:23:18;94500.81;;;22.10;31.78
77366;BME280;66430;50.182;11.704;2023-09-19T11:25:43;94502.02;;;22.05;31.46
77366;BME280;66430;50.182;11.704;2023-09-19T11:30:31;94505.93;;;22.12;30.66
77366;BME280;66430;50.182;11.704;2023-09-19T11:35:16;94503.16;;;22.43;29.83
77366;BME280;66430;50.182;11.704;2023-09-19T11:40:08;94504.44;;;22.63;29.30
77366;BME280;66430;50.182;11.704;2023-09-19T11:42:43;94507.02;;;22.67;28.85
77366;BME280;66430;50.182;11.704;2023-09-19T11:44:58;94514.01;;;22.08;29.30
77366;BME280;66430;50.182;11.704;2023-09-19T11:47:24;94511.53;;;22.13;29.11
77366;BME280;66430;50.182;11.704;2023-09-19T11:49:49;94508.65;;;22.00;28.92
77366;BME280;66430;50.182;11.704;2023-09-19T11:52:21;94509.16;;;21.71;29.00
77366;BME280;66430;50.182;11.704;2023-09-19T11:54:40;94506.08;;;21.48;30.09
77366;BME280;66430;50.182;11.704;2023-09-19T11:57:04;94506.54;;;21.61;29.23
77366;BME280;66430;50.182;11.704;2023-09-19T11:59:31;94502.42;;;21.77;29.54
77366;BME280;66430;50.182;11.704;2023-09-19T12:01:56;94501.29;;;22.06;29.67
77366;BME280;66430;50.182;11.704;2023-09-19T12:04:34;94502.89;;;21.71;29.64
77366;BME280;66430;50.182;11.704;2023-09-19T12:09:12;94507.64;;;22.25;30.19
77366;BME280;66430;50.182;11.704;2023-09-19T12:11:41;94499.71;;;22.08;30.59
77366;BME280;66430;50.182;11.704;2023-09-19T12:14:02;94504.08;;;22.38;29.27
77366;BME280;66430;50.182;11.704;2023-09-19T12:16:27;94499.52;;;22.30;29.13
77366;BME280;66430;50.182;11.704;2023-09-19T12:18:57;94504.88;;;21.98;30.01
77366;BME280;66430;50.182;11.704;2023-09-19T12:21:25;94507.15;;;22.03;29.80
77366;BME280;66430;50.182;11.704;2023-09-19T12:23:43;94510.74;;;22.23;29.94
77366;BME280;66430;50.182;11.704;2023-09-19T12:26:08;94512.37;;;22.56;29.38
77366;BME280;66430;50.182;11.704;2023-09-19T12:28:40;94513.22;;;22.09;29.26
77366;BME280;66430;50.182;11.704;2023-09-19T12:31:06;94510.97;;;22.41;29.00
77366;BME280;66430;50.182;11.704;2023-09-19T12:33:24;94507.47;;;22.13;29.07
77366;BME280;66430;50.182;11.704;2023-09-19T12:35:49;94509.02;;;21.91;29.82
77366;BME280;66430;50.182;11.704;2023-09-19T12:38:24;94509.93;;;21.94;30.02
77366;BME280;66430;50.182;11.704;2023-09-19T12:40:41;94507.21;;;22.30;29.45
77366;BME280;66430;50.182;11.704;2023-09-19T12:43:06;94506.87;;;21.94;29.79
77366;BME280;66430;50.182;11.704;2023-09-19T12:45:31;94497.62;;;21.98;28.66
77366;BME280;66430;50.182;11.704;2023-09-19T12:50:21;94491.65;;;22.18;29.97
77366;BME280;66430;50.182;11.704;2023-09-19T12:52:48;94490.38;;;21.58;30.03
77366;BME280;66430;50.182;11.704;2023-09-19T12:55:29;94490.02;;;22.14;29.63
77366;BME280;66430;50.182;11.704;2023-09-19T12:57:37;94492.81;;;21.87;29.57